createdAt,value
2023-04-15T00:00:39.654Z,7.75
2023-04-15T00:03:06.338Z,7.66
2023-04-15T00:05:32.977Z,7.67
2023-04-15T00:08:00.808Z,7.72
2023-04-15T00:10:27.761Z,7.71
2023-04-15T00:12:54.349Z,7.65
2023-04-15T00:15:20.913Z,7.62
2023-04-15T00:17:50.647Z,7.55
2023-04-15T00:20:17.108Z,7.63
2023-04-15T00:22:43.649Z,7.57
2023-04-15T00:25:10.280Z,7.49
2023-04-15T00:27:36.868Z,7.46
2023-04-15T00:30:03.603Z,7.48
2023-04-15T00:32:30.164Z,7.42
2023-04-15T00:34:56.714Z,7.36
2023-04-15T00:37:23.245Z,7.44
2023-04-15T00:39:49.792Z,7.46
2023-04-15T00:42:16.348Z,7.45
2023-04-15T00:44:42.904Z,7.37
2023-04-15T00:47:09.440Z,7.28
2023-04-15T00:49:35.983Z,7.28
2023-04-15T00:52:02.970Z,7.24
2023-04-15T00:54:29.529Z,7.32
2023-04-15T00:56:56.068Z,7.28
2023-04-15T00:59:22.621Z,7.30
2023-04-15T01:01:49.344Z,7.35
2023-04-15T01:04:16.375Z,7.35
2023-04-15T01:06:42.975Z,7.38
2023-04-15T01:09:09.487Z,7.41
2023-04-15T01:11:36.037Z,7.38
2023-04-15T01:14:02.564Z,7.39
2023-04-15T01:16:29.213Z,7.37
2023-04-15T01:18:55.852Z,7.38
2023-04-15T01:21:22.441Z,7.43
2023-04-15T01:23:49.289Z,7.38
2023-04-15T01:26:15.844Z,7.29
2023-04-15T01:28:42.393Z,7.36
2023-04-15T01:31:10.410Z,7.33
2023-04-15T01:33:37.111Z,7.30
2023-04-15T01:36:04.857Z,7.26
2023-04-15T01:38:31.406Z,7.20
2023-04-15T01:40:57.953Z,7.18
2023-04-15T01:43:24.506Z,7.30
2023-04-15T01:45:51.052Z,7.31
2023-04-15T01:48:17.626Z,7.26
2023-04-15T01:50:44.305Z,7.32
2023-04-15T01:53:10.993Z,7.21
2023-04-15T01:55:37.514Z,7.30
2023-04-15T01:58:04.053Z,7.28
2023-04-15T02:00:30.591Z,7.26
2023-04-15T02:02:57.250Z,7.25
2023-04-15T02:05:23.818Z,7.22
2023-04-15T02:07:50.329Z,7.17
2023-04-15T02:10:16.927Z,7.25
2023-04-15T02:12:43.458Z,7.19
2023-04-15T02:15:10.521Z,7.20
2023-04-15T02:17:37.226Z,7.14
2023-04-15T02:20:04.231Z,7.19
2023-04-15T02:22:30.778Z,7.18
2023-04-15T02:24:57.332Z,7.28
2023-04-15T02:27:23.859Z,7.27
2023-04-15T02:29:50.407Z,7.20
2023-04-15T02:32:16.980Z,7.27
2023-04-15T02:34:43.533Z,7.20
2023-04-15T02:37:11.005Z,7.18
2023-04-15T02:39:37.532Z,7.21
2023-04-15T02:42:04.173Z,7.22
2023-04-15T02:44:30.715Z,7.20
2023-04-15T02:46:57.288Z,7.22
2023-04-15T02:49:24.188Z,7.22
2023-04-15T02:51:50.805Z,7.21
2023-04-15T02:54:18.115Z,7.25
2023-04-15T02:56:44.628Z,7.27
2023-04-15T02:59:12.341Z,7.28
2023-04-15T03:01:38.889Z,7.29
2023-04-15T03:04:05.590Z,7.28
2023-04-15T03:06:32.174Z,7.25
2023-04-15T03:08:58.818Z,7.33
2023-04-15T03:11:25.529Z,7.26
2023-04-15T03:13:52.186Z,7.32
2023-04-15T03:16:18.804Z,7.28
2023-04-15T03:18:45.386Z,7.30
2023-04-15T03:21:11.952Z,7.28
2023-04-15T03:23:38.685Z,7.36
2023-04-15T03:26:05.314Z,7.40
2023-04-15T03:28:31.862Z,7.32
2023-04-15T03:30:58.970Z,7.30
2023-04-15T03:33:25.594Z,7.35
2023-04-15T03:35:52.216Z,7.28
2023-04-15T03:38:18.852Z,7.33
2023-04-15T03:40:46.800Z,7.25
2023-04-15T03:43:13.340Z,7.27
2023-04-15T03:45:39.942Z,7.37
2023-04-15T03:48:16.767Z,7.29
2023-04-15T03:50:44.567Z,7.37
2023-04-15T03:53:11.122Z,7.35
2023-04-15T03:55:37.665Z,7.28
2023-04-15T03:58:04.214Z,7.29
2023-04-15T04:00:30.787Z,7.40
2023-04-15T04:02:57.483Z,7.39
2023-04-15T04:05:24.339Z,7.42
2023-04-15T04:07:50.911Z,7.45
2023-04-15T04:10:17.491Z,7.41
2023-04-15T04:12:44.009Z,7.37
2023-04-15T04:15:11.007Z,7.31
2023-04-15T04:17:37.671Z,7.36
2023-04-15T04:20:04.417Z,7.37
2023-04-15T04:22:31.066Z,7.40
2023-04-15T04:24:57.580Z,7.37
2023-04-15T04:27:24.165Z,7.38
2023-04-15T04:29:50.723Z,7.29
2023-04-15T04:32:17.252Z,7.31
2023-04-15T04:34:43.792Z,7.32
2023-04-15T04:37:10.346Z,7.37
2023-04-15T04:39:36.895Z,7.30
2023-04-15T04:42:03.445Z,7.31
2023-04-15T04:44:29.991Z,7.35
2023-04-15T04:46:56.535Z,7.37
2023-04-15T04:49:23.090Z,7.39
2023-04-15T04:51:49.582Z,7.40
2023-04-15T04:54:16.191Z,7.48
2023-04-15T04:56:42.731Z,7.44
2023-04-15T04:59:09.258Z,7.50
2023-04-15T05:01:35.880Z,7.42
2023-04-15T05:04:02.695Z,7.44
2023-04-15T05:06:29.349Z,7.49
2023-04-15T05:08:55.904Z,7.54
2023-04-15T05:11:22.455Z,7.50
2023-04-15T05:13:48.996Z,7.51
2023-04-15T05:16:15.548Z,7.50
2023-04-15T05:18:42.232Z,7.53
2023-04-15T05:21:08.816Z,7.53
2023-04-15T05:23:35.363Z,7.56
2023-04-15T05:26:01.956Z,7.59
2023-04-15T05:28:28.555Z,7.59
2023-04-15T05:30:55.081Z,7.58
2023-04-15T05:33:21.679Z,7.53
2023-04-15T05:35:48.264Z,7.66
2023-04-15T05:38:14.788Z,7.64
2023-04-15T05:40:41.314Z,7.67
2023-04-15T05:43:07.865Z,7.58
2023-04-15T05:45:34.420Z,7.70
2023-04-15T05:48:01.050Z,7.74
2023-04-15T05:50:27.676Z,7.67
2023-04-15T05:52:54.262Z,7.66
2023-04-15T05:55:20.789Z,7.68
2023-04-15T05:57:47.315Z,7.65
2023-04-15T06:00:14.376Z,7.65
2023-04-15T06:02:41.027Z,7.69
2023-04-15T06:05:08.068Z,7.73
2023-04-15T06:07:34.737Z,7.80
2023-04-15T06:10:01.258Z,7.79
2023-04-15T06:12:27.868Z,7.84
2023-04-15T06:14:54.406Z,7.83
2023-04-15T06:17:21.068Z,7.84
2023-04-15T06:19:47.648Z,7.88
2023-04-15T06:22:14.211Z,7.88
2023-04-15T06:24:40.750Z,7.80
2023-04-15T06:27:07.287Z,7.78
2023-04-15T06:29:33.832Z,7.81
2023-04-15T06:32:00.426Z,7.83
2023-04-15T06:34:27.050Z,7.79
2023-04-15T06:36:53.604Z,7.79
2023-04-15T06:39:20.156Z,7.76
2023-04-15T06:41:46.777Z,7.78
2023-04-15T06:44:13.308Z,7.88
2023-04-15T06:46:39.860Z,7.86
2023-04-15T06:49:06.373Z,7.89
2023-04-15T06:51:34.279Z,7.95
2023-04-15T06:54:00.832Z,8.01
2023-04-15T06:56:27.375Z,7.94
2023-04-15T06:58:53.980Z,7.96
2023-04-15T07:01:20.575Z,7.97
2023-04-15T07:03:47.148Z,7.98
2023-04-15T07:06:13.722Z,8.07
2023-04-15T07:08:40.329Z,8.07
2023-04-15T07:11:06.928Z,8.08
2023-04-15T07:13:33.854Z,8.09
2023-04-15T07:16:00.417Z,8.09
2023-04-15T07:18:26.952Z,8.10
2023-04-15T07:20:53.455Z,8.13
2023-04-15T07:23:20.036Z,8.23
2023-04-15T07:25:46.633Z,8.21
2023-04-15T07:28:13.184Z,8.21
2023-04-15T07:30:39.749Z,8.22
2023-04-15T07:33:06.347Z,8.24
2023-04-15T07:35:32.910Z,8.32
2023-04-15T07:37:59.462Z,8.32
2023-04-15T07:40:26.048Z,8.38
2023-04-15T07:42:52.569Z,8.44
2023-04-15T07:45:19.124Z,8.37
2023-04-15T07:47:45.748Z,8.48
2023-04-15T07:50:12.342Z,8.44
2023-04-15T07:52:38.928Z,8.52
2023-04-15T07:55:09.673Z,8.42
2023-04-15T07:57:36.373Z,8.46
2023-04-15T08:00:03.313Z,8.46
2023-04-15T08:02:30.081Z,8.44
2023-04-15T08:04:56.744Z,8.42
2023-04-15T08:07:23.675Z,8.47
2023-04-15T08:09:50.225Z,8.54
2023-04-15T08:12:16.751Z,8.49
2023-04-15T08:14:44.438Z,8.50
2023-04-15T08:17:11.088Z,8.50
2023-04-15T08:19:37.656Z,8.52
2023-04-15T08:22:04.190Z,8.53
2023-04-15T08:24:31.526Z,8.54
2023-04-15T08:26:58.068Z,8.53
2023-04-15T08:29:24.654Z,8.55
2023-04-15T08:31:51.222Z,8.55
2023-04-15T08:34:17.896Z,8.57
2023-04-15T08:36:44.447Z,8.61
2023-04-15T08:39:10.971Z,8.57
2023-04-15T08:41:41.291Z,8.60
2023-04-15T08:44:07.886Z,8.67
2023-04-15T08:46:34.451Z,8.70
2023-04-15T08:49:01.506Z,8.69
2023-04-15T08:51:28.405Z,8.77
2023-04-15T08:53:55.005Z,8.81
2023-04-15T08:56:24.549Z,8.83
2023-04-15T08:58:51.155Z,8.81
2023-04-15T09:01:17.737Z,8.78
2023-04-15T09:03:44.501Z,8.86
2023-04-15T09:06:11.627Z,8.82
2023-04-15T09:08:38.231Z,8.94
2023-04-15T09:11:04.788Z,9.03
2023-04-15T09:13:31.421Z,9.09
2023-04-15T09:15:57.936Z,9.14
2023-04-15T09:18:31.675Z,9.10
2023-04-15T09:21:11.039Z,9.22
2023-04-15T09:23:38.778Z,9.25
2023-04-15T09:26:05.515Z,9.33
2023-04-15T09:28:32.125Z,9.37
2023-04-15T09:30:58.954Z,9.32
2023-04-15T09:33:25.927Z,9.24
2023-04-15T09:36:03.784Z,9.32
2023-04-15T09:38:30.619Z,9.32
2023-04-15T09:40:57.331Z,9.33
2023-04-15T09:43:23.927Z,9.46
2023-04-15T09:45:54.405Z,9.60
2023-04-15T09:48:22.380Z,9.74
2023-04-15T09:50:49.530Z,9.90
2023-04-15T09:53:20.233Z,10.11
2023-04-15T09:55:50.717Z,10.17
2023-04-15T09:58:21.452Z,10.13
2023-04-15T10:00:48.329Z,10.26
2023-04-15T10:03:35.331Z,10.31
2023-04-15T10:06:02.094Z,10.44
2023-04-15T10:08:30.973Z,10.52
2023-04-15T10:10:57.513Z,10.63
2023-04-15T10:13:25.286Z,10.69
2023-04-15T10:16:05.486Z,10.66
2023-04-15T10:18:34.584Z,10.58
2023-04-15T10:21:01.450Z,10.63
2023-04-15T10:23:28.056Z,10.83
2023-04-15T10:25:54.612Z,10.93
2023-04-15T10:28:21.276Z,11.14
2023-04-15T10:30:47.828Z,11.51
2023-04-15T10:33:14.395Z,11.72
2023-04-15T10:35:40.904Z,11.76
2023-04-15T10:38:39.178Z,11.88
2023-04-15T10:41:21.759Z,12.05
2023-04-15T10:43:54.960Z,11.98
2023-04-15T10:46:23.215Z,12.06
2023-04-15T10:48:50.732Z,12.24
2023-04-15T10:51:17.356Z,12.52
2023-04-15T10:53:43.882Z,12.52
2023-04-15T10:56:10.444Z,12.61
2023-04-15T10:58:43.460Z,12.68
2023-04-15T11:01:10.022Z,12.56
2023-04-15T11:03:37.596Z,12.63
2023-04-15T11:06:04.686Z,13.04
2023-04-15T11:08:55.554Z,13.26
2023-04-15T11:11:22.402Z,13.49
2023-04-15T11:13:49.963Z,13.33
2023-04-15T11:16:16.559Z,13.23
2023-04-15T11:18:43.149Z,12.97
2023-04-15T11:21:09.697Z,12.81
2023-04-15T11:23:40.924Z,12.75
2023-04-15T11:26:08.417Z,12.72
2023-04-15T11:28:36.286Z,12.62
2023-04-15T11:31:16.584Z,12.63
2023-04-15T11:33:59.830Z,12.70
2023-04-15T11:36:27.468Z,12.53
2023-04-15T11:38:54.056Z,12.46
2023-04-15T11:41:21.471Z,12.36
2023-04-15T11:43:48.050Z,12.28
2023-04-15T11:46:14.728Z,12.19
2023-04-15T11:48:43.421Z,12.08
2023-04-15T11:51:09.963Z,12.08
2023-04-15T11:53:48.865Z,12.11
2023-04-15T11:56:19.568Z,12.06
2023-04-15T11:58:46.350Z,12.11
2023-04-15T12:01:13.009Z,12.13
2023-04-15T12:03:43.316Z,12.06
2023-04-15T12:06:23.306Z,12.09
2023-04-15T12:08:49.717Z,12.09
2023-04-15T12:11:20.313Z,12.12
2023-04-15T12:13:50.424Z,12.25
2023-04-15T12:16:18.269Z,12.38
2023-04-15T12:18:50.766Z,12.43
2023-04-15T12:21:19.684Z,12.44
2023-04-15T12:23:50.352Z,12.37
2023-04-15T12:26:17.449Z,12.24
2023-04-15T12:28:43.994Z,12.25
2023-04-15T12:31:11.399Z,12.13
2023-04-15T12:33:38.063Z,12.15
2023-04-15T12:36:04.836Z,12.11
2023-04-15T12:38:31.428Z,12.22
2023-04-15T12:40:58.609Z,12.22
2023-04-15T12:43:25.416Z,12.29
2023-04-15T12:45:52.016Z,12.32
2023-04-15T12:48:18.598Z,12.28
2023-04-15T12:50:45.160Z,12.32
2023-04-15T12:53:11.728Z,12.25
2023-04-15T12:55:38.297Z,12.24
2023-04-15T12:58:04.886Z,12.33
2023-04-15T13:00:34.381Z,12.27
2023-04-15T13:03:00.869Z,12.36
2023-04-15T13:05:27.450Z,12.36
2023-04-15T13:07:54.056Z,12.52
2023-04-15T13:10:20.571Z,12.65
2023-04-15T13:12:47.079Z,12.77
2023-04-15T13:15:13.618Z,12.81
2023-04-15T13:17:40.162Z,12.85
2023-04-15T13:20:06.920Z,12.84
2023-04-15T13:22:33.500Z,12.93
2023-04-15T13:25:00.026Z,12.97
2023-04-15T13:27:26.558Z,12.93
2023-04-15T13:29:53.879Z,12.99
2023-04-15T13:32:21.005Z,12.96
2023-04-15T13:34:47.575Z,13.05
2023-04-15T13:37:14.123Z,13.18
2023-04-15T13:39:40.658Z,13.35
2023-04-15T13:42:07.133Z,13.38
2023-04-15T13:44:33.749Z,13.49
2023-04-15T13:47:00.280Z,13.48
2023-04-15T13:49:26.849Z,13.64
2023-04-15T13:51:53.355Z,13.74
2023-04-15T13:54:19.921Z,14.11
2023-04-15T13:56:46.492Z,15.49
2023-04-15T13:59:13.171Z,15.97
2023-04-15T14:01:39.812Z,15.82
2023-04-15T14:04:06.842Z,16.10
2023-04-15T14:06:33.588Z,17.73
2023-04-15T14:09:00.162Z,16.94
2023-04-15T14:11:26.702Z,16.19
2023-04-15T14:13:53.259Z,15.88
2023-04-15T14:16:19.936Z,15.65
2023-04-15T14:18:46.502Z,15.02
2023-04-15T14:21:13.019Z,14.59
2023-04-15T14:23:39.562Z,14.45
2023-04-15T14:26:06.118Z,15.30
2023-04-15T14:28:32.667Z,16.18
2023-04-15T14:30:59.283Z,17.46
2023-04-15T14:33:25.835Z,17.23
2023-04-15T14:35:52.436Z,16.57
2023-04-15T14:38:18.966Z,17.61
2023-04-15T14:40:45.507Z,16.76
2023-04-15T14:43:12.060Z,16.31
2023-04-15T14:45:40.562Z,15.63
2023-04-15T14:48:09.919Z,15.32
2023-04-15T14:50:36.502Z,15.70
2023-04-15T14:53:03.024Z,15.02
2023-04-15T14:55:29.577Z,14.89
2023-04-15T14:57:56.138Z,14.59
2023-04-15T15:00:22.668Z,14.20
2023-04-15T15:02:49.318Z,13.92
2023-04-15T15:05:16.006Z,13.65
2023-04-15T15:07:42.961Z,13.43
2023-04-15T15:10:09.500Z,13.17
2023-04-15T15:12:36.013Z,13.08
2023-04-15T15:15:09.174Z,13.06
2023-04-15T15:17:42.607Z,12.99
2023-04-15T15:20:09.542Z,12.90
2023-04-15T15:22:36.102Z,12.89
2023-04-15T15:25:02.667Z,12.85
2023-04-15T15:27:29.204Z,12.82
2023-04-15T15:29:56.543Z,12.76
2023-04-15T15:32:23.173Z,12.77
2023-04-15T15:34:49.797Z,12.80
2023-04-15T15:37:16.374Z,12.86
2023-04-15T15:39:42.918Z,13.41
2023-04-15T15:42:09.523Z,13.34
2023-04-15T15:44:36.072Z,13.06
2023-04-15T15:47:02.654Z,12.89
2023-04-15T15:49:29.363Z,12.82
2023-04-15T15:51:56.204Z,12.64
2023-04-15T15:54:22.898Z,12.60
2023-04-15T15:56:49.428Z,12.58
2023-04-15T15:59:16.050Z,12.51
2023-04-15T16:01:43.345Z,12.39
2023-04-15T16:04:10.117Z,12.38
2023-04-15T16:06:36.863Z,12.37
2023-04-15T16:09:03.723Z,12.44
2023-04-15T16:11:30.430Z,12.42
2023-04-15T16:13:57.194Z,12.41
2023-04-15T16:16:23.878Z,12.38
2023-04-15T16:18:50.508Z,12.28
2023-04-15T16:21:17.051Z,12.28
2023-04-15T16:23:43.586Z,12.19
2023-04-15T16:26:10.189Z,12.16
2023-04-15T16:28:36.798Z,12.10
2023-04-15T16:31:03.492Z,12.06
2023-04-15T16:33:30.089Z,12.06
2023-04-15T16:35:56.681Z,11.92
2023-04-15T16:38:23.261Z,11.93
2023-04-15T16:40:49.797Z,11.96
2023-04-15T16:43:16.623Z,11.89
2023-04-15T16:45:43.175Z,11.86
2023-04-15T16:48:09.726Z,11.74
2023-04-15T16:50:36.943Z,11.71
2023-04-15T16:53:03.524Z,11.74
2023-04-15T16:55:30.101Z,11.69
2023-04-15T16:58:01.624Z,11.61
2023-04-15T17:00:30.570Z,11.55
2023-04-15T17:02:57.490Z,11.48
2023-04-15T17:05:24.299Z,11.53
2023-04-15T17:07:50.802Z,11.48
2023-04-15T17:10:17.497Z,11.45
2023-04-15T17:12:44.050Z,11.42
2023-04-15T17:15:10.617Z,11.36
2023-04-15T17:17:37.277Z,11.37
2023-04-15T17:20:03.966Z,11.30
2023-04-15T17:22:30.540Z,11.32
2023-04-15T17:24:57.134Z,11.31
2023-04-15T17:27:23.680Z,11.23
2023-04-15T17:29:50.237Z,11.26
2023-04-15T17:32:16.903Z,11.19
2023-04-15T17:34:50.454Z,11.17
2023-04-15T17:37:17.756Z,11.14
2023-04-15T17:39:44.317Z,11.12
2023-04-15T17:42:11.329Z,11.09
2023-04-15T17:44:37.922Z,11.09
2023-04-15T17:47:04.446Z,11.11
2023-04-15T17:49:30.983Z,11.01
2023-04-15T17:51:57.586Z,10.95
2023-04-15T17:54:24.203Z,10.93
2023-04-15T17:56:50.780Z,10.97
2023-04-15T17:59:17.472Z,10.87
2023-04-15T18:01:44.133Z,10.95
2023-04-15T18:04:11.187Z,10.93
2023-04-15T18:06:38.312Z,10.86
2023-04-15T18:09:05.505Z,10.80
2023-04-15T18:11:32.779Z,10.82
2023-04-15T18:13:59.626Z,10.76
2023-04-15T18:16:26.449Z,10.82
2023-04-15T18:18:53.075Z,10.74
2023-04-15T18:21:19.628Z,10.71
2023-04-15T18:23:46.246Z,10.71
2023-04-15T18:26:13.277Z,10.81
2023-04-15T18:28:39.871Z,10.76
2023-04-15T18:31:06.547Z,10.65
2023-04-15T18:33:33.108Z,10.63
2023-04-15T18:35:59.689Z,10.60
2023-04-15T18:38:26.251Z,10.61
2023-04-15T18:40:52.780Z,10.50
2023-04-15T18:43:19.307Z,10.41
2023-04-15T18:45:45.944Z,10.40
2023-04-15T18:48:12.528Z,10.32
2023-04-15T18:50:39.056Z,10.27
2023-04-15T18:53:05.602Z,10.23
2023-04-15T18:55:32.206Z,10.34
2023-04-15T18:58:08.475Z,10.31
2023-04-15T19:00:36.072Z,10.18
2023-04-15T19:03:02.598Z,10.14
2023-04-15T19:05:30.050Z,10.11
2023-04-15T19:07:59.131Z,10.04
2023-04-15T19:10:27.043Z,9.99
2023-04-15T19:12:54.156Z,9.95
2023-04-15T19:15:20.784Z,9.95
2023-04-15T19:17:47.341Z,9.87
2023-04-15T19:20:14.019Z,9.89
2023-04-15T19:22:40.594Z,9.85
2023-04-15T19:25:07.416Z,9.86
2023-04-15T19:27:33.960Z,9.81
2023-04-15T19:30:00.526Z,9.83
2023-04-15T19:32:27.113Z,9.80
2023-04-15T19:34:53.681Z,9.76
2023-04-15T19:37:20.196Z,9.71
2023-04-15T19:39:46.878Z,9.65
2023-04-15T19:42:13.469Z,9.68
2023-04-15T19:44:40.027Z,9.61
2023-04-15T19:47:08.072Z,9.61
2023-04-15T19:49:34.614Z,9.61
2023-04-15T19:52:01.154Z,9.63
2023-04-15T19:54:28.072Z,9.71
2023-04-15T19:56:54.577Z,9.59
2023-04-15T19:59:21.137Z,9.60
2023-04-15T20:01:47.807Z,9.61
2023-04-15T20:04:14.597Z,9.56
2023-04-15T20:06:41.315Z,9.52
2023-04-15T20:09:10.381Z,9.40
2023-04-15T20:12:46.227Z,9.31
2023-04-15T20:14:24.318Z,9.38
2023-04-15T20:16:50.865Z,9.26
2023-04-15T20:19:17.450Z,9.22
2023-04-15T20:21:44.063Z,9.27
2023-04-15T20:24:11.112Z,9.27
2023-04-15T20:26:37.717Z,9.27
2023-04-15T20:29:04.384Z,9.25
2023-04-15T20:31:31.260Z,9.15
2023-04-15T20:33:57.817Z,9.17
2023-04-15T20:36:24.412Z,9.21
2023-04-15T20:38:51.050Z,9.24
2023-04-15T20:41:17.590Z,9.20
2023-04-15T20:43:44.142Z,9.19
2023-04-15T20:46:20.515Z,9.21
2023-04-15T20:48:47.857Z,9.07
2023-04-15T20:51:14.453Z,9.11
2023-04-15T20:53:40.982Z,9.01
2023-04-15T20:56:07.533Z,9.03
2023-04-15T20:58:34.038Z,9.02
2023-04-15T21:01:00.785Z,8.97
2023-04-15T21:03:27.683Z,8.92
2023-04-15T21:05:54.319Z,8.86
2023-04-15T21:08:20.910Z,8.85
2023-04-15T21:10:47.468Z,8.82
2023-04-15T21:13:14.095Z,8.93
2023-04-15T21:15:40.637Z,8.89
2023-04-15T21:18:07.234Z,8.84
2023-04-15T21:20:33.854Z,8.82
2023-04-15T21:23:00.470Z,8.78
2023-04-15T21:25:26.967Z,8.73
2023-04-15T21:27:53.504Z,8.79
2023-04-15T21:30:20.083Z,8.69
2023-04-15T21:32:46.739Z,8.72
2023-04-15T21:35:13.438Z,8.69
2023-04-15T21:37:39.924Z,8.71
2023-04-15T21:40:07.138Z,8.72
2023-04-15T21:42:33.682Z,8.84
2023-04-15T21:45:00.213Z,8.73
2023-04-15T21:47:26.850Z,8.68
2023-04-15T21:49:53.492Z,8.54
2023-04-15T21:52:20.008Z,8.54
2023-04-15T21:54:46.609Z,8.49
2023-04-15T21:57:13.313Z,8.47
2023-04-15T21:59:39.868Z,8.46
2023-04-15T22:02:06.430Z,8.45
2023-04-15T22:04:33.111Z,8.50
2023-04-15T22:06:59.670Z,8.47
2023-04-15T22:09:26.421Z,8.40
2023-04-15T22:11:52.934Z,8.39
2023-04-15T22:14:19.449Z,8.39
2023-04-15T22:16:46.117Z,8.39
2023-04-15T22:19:12.679Z,8.34
2023-04-15T22:21:39.216Z,8.34
2023-04-15T22:24:38.793Z,8.33
2023-04-15T22:26:52.456Z,8.40
2023-04-15T22:29:19.014Z,8.40
2023-04-15T22:31:45.553Z,8.38
2023-04-15T22:34:12.302Z,8.44
2023-04-15T22:36:38.861Z,8.45
2023-04-15T22:39:05.546Z,8.37
2023-04-15T22:41:32.303Z,8.28
2023-04-15T22:43:58.840Z,8.29
2023-04-15T22:46:25.350Z,8.27
2023-04-15T22:48:51.912Z,8.33
2023-04-15T22:51:22.378Z,8.38
2023-04-15T22:53:49.739Z,8.31
2023-04-15T22:56:19.148Z,8.32
2023-04-15T22:58:45.698Z,8.27
2023-04-15T23:01:12.269Z,8.18
2023-04-15T23:03:53.709Z,8.24
2023-04-15T23:06:23.886Z,8.17
2023-04-15T23:08:51.079Z,8.10
2023-04-15T23:11:17.623Z,8.14
2023-04-15T23:13:44.176Z,8.25
2023-04-15T23:16:10.836Z,8.24
2023-04-15T23:18:37.437Z,8.29
2023-04-15T23:21:04.176Z,8.21
2023-04-15T23:23:30.714Z,8.21
2023-04-15T23:25:57.257Z,8.19
2023-04-15T23:28:23.846Z,8.23
2023-04-15T23:30:50.377Z,8.14
2023-04-15T23:33:16.969Z,8.07
2023-04-15T23:35:43.479Z,8.01
2023-04-15T23:38:10.021Z,8.10
2023-04-15T23:40:36.574Z,7.98
2023-04-15T23:43:03.094Z,7.94
2023-04-15T23:45:29.643Z,7.97
2023-04-15T23:47:56.231Z,7.96
2023-04-15T23:50:22.839Z,7.89
2023-04-15T23:52:49.343Z,7.89
2023-04-15T23:55:15.923Z,7.97
2023-04-15T23:57:42.489Z,7.94
